Time;durP1;ratioP1;P1;durP2;ratioP2;P2;SDS_P1;SDS_P2;PMS_P1;PMS_P2;Temp;Humidity;BMP_temperature;BMP_pressure;BME280_temperature;BME280_humidity;BME280_pressure;Samples;Min_cycle;Max_cycle;Signal;HPM_P1;HPM_P2
2022/08/02 00:01:53;;;;;;;3.72;1.27;;;;;;;24.75;82.38;99778.56;5069982;28;20202;-76
2022/08/02 00:04:20;;;;;;;1.40;1.30;;;;;;;24.75;83.52;99778.56;5069931;28;20571;-76
2022/08/02 00:06:49;;;;;;;1.45;1.40;;;;;;;24.85;84.43;99779.88;5069069;28;20213;-76
2022/08/02 00:09:16;;;;;;;5.50;1.50;;;;;;;24.76;85.08;99785.56;5069782;28;20214;-76
2022/08/02 00:11:43;;;;;;;4.88;1.40;;;;;;;24.33;88.89;99788.53;5070381;28;20199;-76
2022/08/02 00:14:10;;;;;;;1.65;1.55;;;;;;;24.15;89.72;99785.75;5070383;28;20214;-77
2022/08/02 00:16:37;;;;;;;2.10;1.40;;;;;;;24.33;89.77;99791.19;5070222;28;20198;-76
2022/08/02 00:19:04;;;;;;;1.70;1.60;;;;;;;24.22;89.20;99789.03;5069723;28;20203;-76
2022/08/02 00:21:31;;;;;;;1.40;1.30;;;;;;;24.21;89.08;99783.78;5069969;28;20201;-76
2022/08/02 00:23:59;;;;;;;2.35;2.15;;;;;;;24.31;88.81;99779.78;5034010;28;20257;-77
2022/08/02 00:26:26;;;;;;;1.60;1.50;;;;;;;24.10;89.40;99778.94;5069066;28;20199;-77
2022/08/02 00:28:53;;;;;;;1.63;1.52;;;;;;;23.84;91.93;99780.09;5068632;28;20199;-77
2022/08/02 00:31:19;;;;;;;1.80;1.70;;;;;;;24.07;90.67;99787.03;5069014;28;20202;-76
2022/08/02 00:33:46;;;;;;;3.80;1.60;;;;;;;24.10;90.70;99790.41;5049501;28;20202;-76
2022/08/02 00:36:13;;;;;;;2.50;1.80;;;;;;;23.93;90.83;99781.47;5069303;28;20682;-76
2022/08/02 00:38:40;;;;;;;1.85;1.63;;;;;;;23.51;94.38;99773.59;5068359;28;20198;-76
2022/08/02 00:41:15;;;;;;;1.65;1.63;;;;;;;23.64;93.33;99770.38;5033327;28;20199;-76
2022/08/02 00:43:42;;;;;;;2.22;2.00;;;;;;;23.50;94.70;99764.81;5068974;28;20198;-75
2022/08/02 00:46:08;;;;;;;2.83;2.20;;;;;;;23.39;97.63;99771.44;5069015;28;20199;-77
2022/08/02 00:48:36;;;;;;;2.72;2.15;;;;;;;23.43;98.37;99776.59;5073052;28;20202;-76
2022/08/02 00:51:03;;;;;;;2.70;1.73;;;;;;;23.39;99.39;99782.03;5034472;28;20222;-76
2022/08/02 00:53:30;;;;;;;4.05;1.80;;;;;;;23.39;98.85;99758.22;5062959;28;20230;-77
2022/08/02 00:55:57;;;;;;;4.32;2.22;;;;;;;23.50;99.32;99777.19;5073387;28;20205;-76
2022/08/02 00:58:28;;;;;;;2.83;2.15;;;;;;;23.42;100.00;99763.41;5037484;28;20593;-77
2022/08/02 01:00:56;;;;;;;6.50;2.08;;;;;;;22.92;100.00;99731.09;5073592;28;20210;-77
2022/08/02 01:03:23;;;;;;;4.47;2.17;;;;;;;23.26;100.00;99778.19;5073027;28;20277;-76
2022/08/02 01:05:50;;;;;;;2.45;1.95;;;;;;;23.15;100.00;99766.25;5072193;28;20223;-77
2022/08/02 01:08:17;;;;;;;4.35;2.22;;;;;;;23.41;100.00;99785.47;5073323;28;20285;-76
2022/08/02 01:10:44;;;;;;;4.03;1.92;;;;;;;23.32;100.00;99775.28;5073421;28;20351;-77
2022/08/02 01:13:11;;;;;;;3.83;1.95;;;;;;;23.44;99.59;99786.22;5073461;28;20195;-77
2022/08/02 01:15:47;;;;;;;1.67;1.60;;;;;;;23.40;98.50;99781.13;5073270;28;20204;-77
2022/08/02 01:18:24;;;;;;;1.95;1.80;;;;;;;23.11;99.87;99788.47;5073357;28;20285;-76
2022/08/02 01:21:23;;;;;;;1.88;1.73;;;;;;;23.15;98.83;99781.28;5072832;28;20210;-77
2022/08/02 01:24:01;;;;;;;2.50;1.70;;;;;;;23.02;100.00;99780.03;5010866;28;20201;-76
2022/08/02 01:26:42;;;;;;;2.55;2.00;;;;;;;23.18;100.00;99787.31;5010747;28;20284;-77
2022/08/02 01:29:17;;;;;;;2.40;1.98;;;;;;;22.89;100.00;99784.09;5010392;28;20200;-77
2022/08/02 01:31:49;;;;;;;2.13;1.98;;;;;;;22.88;100.00;99777.94;5010605;28;20723;-77
2022/08/02 01:34:20;;;;;;;1.95;1.60;;;;;;;22.94;100.00;99782.13;5010451;28;20680;-78
2022/08/02 01:36:54;;;;;;;1.85;1.70;;;;;;;23.12;100.00;99786.66;5010755;28;20209;-77
2022/08/02 01:39:24;;;;;;;1.90;1.80;;;;;;;23.01;100.00;99788.91;5009871;28;20259;-77
2022/08/02 01:41:53;;;;;;;1.85;1.75;;;;;;;23.12;100.00;99791.97;5010272;28;20201;-77
2022/08/02 01:44:24;;;;;;;1.70;1.60;;;;;;;23.06;100.00;99787.78;5010357;28;20200;-77
2022/08/02 01:46:53;;;;;;;3.90;2.03;;;;;;;23.08;100.00;99799.16;5010548;28;20304;-76
2022/08/02 01:49:24;;;;;;;2.05;1.90;;;;;;;23.04;100.00;99787.00;4961501;28;20236;-78
2022/08/02 01:54:39;;;;;;;2.05;1.90;;;;;;;22.93;100.00;99801.56;5010418;28;20200;-77
2022/08/02 01:57:10;;;;;;;2.50;1.85;;;;;;;22.84;100.00;99788.69;5009955;28;20285;-77
2022/08/02 01:59:42;;;;;;;3.10;2.00;;;;;;;22.95;100.00;99800.59;5023588;28;20210;-76
2022/08/02 02:02:10;;;;;;;2.28;2.08;;;;;;;23.00;100.00;99793.34;5071823;28;20214;-76
2022/08/02 02:04:38;;;;;;;1.73;1.63;;;;;;;22.40;100.00;99724.38;5072013;28;20233;-77
2022/08/02 02:07:07;;;;;;;3.05;1.85;;;;;;;22.86;100.00;99802.75;5072177;28;20560;-76
2022/08/02 02:09:38;;;;;;;4.03;1.60;;;;;;;22.89;100.00;99799.97;5036838;28;20230;-77
2022/08/02 02:12:07;;;;;;;4.32;1.90;;;;;;;22.80;100.00;99805.59;5072356;28;20195;-77
2022/08/02 02:14:36;;;;;;;1.90;1.80;;;;;;;22.80;100.00;99809.13;5072022;28;20670;-77
2022/08/02 02:17:05;;;;;;;2.92;1.52;;;;;;;22.71;100.00;99793.63;5071812;28;20198;-76
2022/08/02 02:19:33;;;;;;;1.60;1.50;;;;;;;22.84;100.00;99801.91;5072001;28;20199;-77
2022/08/02 02:22:00;;;;;;;1.92;1.67;;;;;;;22.70;100.00;99810.41;5070869;28;20200;-77
2022/08/02 02:24:27;;;;;;;1.70;1.60;;;;;;;22.56;100.00;99813.53;5071893;28;20211;-77
2022/08/02 02:26:54;;;;;;;6.63;1.55;;;;;;;22.72;100.00;99817.34;5072105;28;20194;-77
2022/08/02 02:29:25;;;;;;;3.63;1.70;;;;;;;22.61;100.00;99806.31;5071080;28;20195;-77
2022/08/02 02:31:54;;;;;;;3.85;1.55;;;;;;;22.49;100.00;99795.34;5071559;28;20207;-76
2022/08/02 02:34:28;;;;;;;1.58;1.55;;;;;;;22.52;100.00;99817.22;5071446;28;20195;-77
2022/08/02 02:36:58;;;;;;;1.70;1.55;;;;;;;22.47;100.00;99799.81;5071430;28;20198;-77
2022/08/02 02:39:27;;;;;;;1.95;1.77;;;;;;;22.34;100.00;99798.53;5052739;28;20210;-76
2022/08/02 02:41:56;;;;;;;2.22;2.03;;;;;;;22.53;100.00;99818.94;5071337;28;20663;-77
2022/08/02 02:44:24;;;;;;;2.67;1.70;;;;;;;22.26;100.00;99819.13;5071377;28;20207;-77
2022/08/02 02:46:54;;;;;;;1.75;1.73;;;;;;;22.16;100.00;99822.09;5071265;28;20623;-77
2022/08/02 02:49:23;;;;;;;2.33;1.90;;;;;;;22.18;100.00;99824.69;5052755;28;20207;-76
2022/08/02 02:51:52;;;;;;;2.58;2.40;;;;;;;22.29;100.00;99819.88;5071462;28;20203;-77
2022/08/02 02:54:20;;;;;;;2.22;2.10;;;;;;;22.20;100.00;99828.97;5051873;28;20209;-76
2022/08/02 02:56:48;;;;;;;2.33;2.13;;;;;;;22.31;100.00;99827.72;5071311;28;20203;-77
2022/08/02 02:59:16;;;;;;;4.50;3.05;;;;;;;22.19;100.00;99821.97;5035885;28;20581;-77
2022/08/02 03:01:43;;;;;;;2.33;2.22;;;;;;;22.22;100.00;99824.50;5071023;28;20198;-76
2022/08/02 03:04:12;;;;;;;2.88;2.35;;;;;;;22.01;100.00;99804.16;5070207;28;20222;-77
2022/08/02 03:06:40;;;;;;;3.22;2.13;;;;;;;22.25;100.00;99836.75;5069145;28;20203;-77
2022/08/02 03:09:09;;;;;;;4.25;2.80;;;;;;;22.20;100.00;99836.91;5069698;28;20682;-77
2022/08/02 03:11:37;;;;;;;2.90;2.33;;;;;;;22.21;100.00;99838.63;5069338;28;20617;-77
2022/08/02 03:14:05;;;;;;;2.25;2.08;;;;;;;22.27;100.00;99844.59;5069393;28;20201;-76
2022/08/02 03:16:32;;;;;;;5.47;2.55;;;;;;;22.09;100.00;99828.50;5069876;28;20219;-77
2022/08/02 03:19:02;;;;;;;3.85;2.42;;;;;;;22.06;100.00;99844.47;5070867;28;20207;-77
2022/08/02 03:21:29;;;;;;;3.15;2.08;;;;;;;21.93;100.00;99832.63;5070737;28;20264;-76
2022/08/02 03:23:56;;;;;;;8.95;2.28;;;;;;;22.10;100.00;99856.66;5070836;28;20202;-77
2022/08/02 03:26:24;;;;;;;2.72;2.63;;;;;;;22.19;100.00;99851.03;5070370;28;20575;-76
2022/08/02 03:28:51;;;;;;;7.40;3.03;;;;;;;22.18;100.00;99851.09;5034921;28;20191;-75
2022/08/02 03:31:18;;;;;;;2.72;2.53;;;;;;;22.07;100.00;99846.19;5070360;28;20229;-77
2022/08/02 03:33:45;;;;;;;12.45;5.82;;;;;;;22.18;100.00;99853.75;5070611;28;20215;-77
2022/08/02 03:36:15;;;;;;;14.95;5.28;;;;;;;22.15;100.00;99849.41;5070755;28;20286;-76
2022/08/02 03:38:42;;;;;;;10.68;5.68;;;;;;;21.98;100.00;99833.31;5070283;28;20203;-75
2022/08/02 03:41:11;;;;;;;22.60;10.75;;;;;;;22.15;100.00;99862.59;5070424;28;20199;-76
2022/08/02 03:43:40;;;;;;;55.72;22.00;;;;;;;21.97;100.00;99844.81;5070586;28;20209;-75
2022/08/02 03:46:08;;;;;;;53.17;21.70;;;;;;;21.92;100.00;99820.31;5070225;28;20275;-75
2022/08/02 03:48:37;;;;;;;71.85;27.00;;;;;;;22.10;100.00;99839.94;5069961;28;20190;-76
2022/08/02 03:51:05;;;;;;;20.25;7.85;;;;;;;22.17;100.00;99863.44;5069915;28;20226;-76
2022/08/02 03:53:32;;;;;;;24.75;11.20;;;;;;;22.60;100.00;99861.84;5070012;28;20281;-76
2022/08/02 03:56:00;;;;;;;15.32;6.90;;;;;;;23.07;100.00;99863.59;5070565;28;20191;-76
2022/08/02 03:58:27;;;;;;;24.13;9.68;;;;;;;23.84;100.00;99872.78;5070199;28;20230;-77
2022/08/02 04:00:57;;;;;;;19.67;7.60;;;;;;;24.13;100.00;99815.91;5070691;28;20675;-77
2022/08/02 04:03:24;;;;;;;14.90;7.00;;;;;;;25.05;94.92;99851.41;5035382;28;20203;-78
2022/08/02 04:05:52;;;;;;;12.98;5.78;;;;;;;25.87;89.45;99879.19;5069055;28;20234;-78
2022/08/02 04:08:19;;;;;;;12.00;6.32;;;;;;;26.28;84.56;99881.56;5071056;28;20202;-78
2022/08/02 04:13:34;;;;;;;7.70;4.68;;;;;;;27.58;75.86;99893.84;5070616;28;20205;-76
2022/08/02 04:16:10;;;;;;;14.55;7.25;;;;;;;28.02;69.44;99885.91;5070391;28;20701;-76
2022/08/02 04:18:41;;;;;;;15.13;6.75;;;;;;;28.54;64.99;99906.75;5069924;28;20194;-77
2022/08/02 04:21:13;;;;;;;11.68;5.55;;;;;;;28.51;63.58;99899.81;5071266;28;20201;-76
2022/08/02 04:23:42;;;;;;;12.05;4.20;;;;;;;28.96;63.32;99903.28;5073957;28;20200;-75
2022/08/02 04:26:10;;;;;;;8.23;4.75;;;;;;;29.38;62.04;99910.38;5055574;28;20198;-76
2022/08/02 04:28:37;;;;;;;3.53;3.25;;;;;;;29.51;60.34;99912.13;5074077;28;20194;-77
2022/08/02 04:31:06;;;;;;;6.47;3.30;;;;;;;29.73;59.21;99911.56;5074308;28;20234;-78
2022/08/02 04:33:34;;;;;;;3.88;3.13;;;;;;;29.30;59.62;99915.34;5074286;28;20194;-77
2022/08/02 04:36:01;;;;;;;3.47;2.85;;;;;;;29.28;60.66;99915.47;5074288;28;20217;-79
2022/08/02 04:38:28;;;;;;;3.35;2.80;;;;;;;29.27;61.06;99916.41;5074363;28;20202;-77
2022/08/02 04:40:56;;;;;;;8.25;3.45;;;;;;;29.51;60.82;99901.44;5074400;28;20202;-77
2022/08/02 04:43:23;;;;;;;10.82;2.63;;;;;;;29.85;58.74;99897.44;5074024;28;20202;-78
2022/08/02 04:45:53;;;;;;;3.35;3.05;;;;;;;30.49;57.35;99927.84;5054419;28;20201;-78
2022/08/02 04:48:22;;;;;;;7.00;2.50;;;;;;;30.72;55.05;99921.72;5073745;28;20202;-79
2022/08/02 04:50:49;;;;;;;7.05;2.67;;;;;;;30.82;53.35;99925.44;5072735;28;20217;-78
2022/08/02 04:53:16;;;;;;;3.42;2.53;;;;;;;30.60;54.22;99922.59;5073259;28;20198;-75
2022/08/02 04:55:43;;;;;;;5.40;2.45;;;;;;;30.21;55.79;99911.94;5051838;28;20257;-75
2022/08/02 04:58:10;;;;;;;2.45;2.15;;;;;;;29.98;57.68;99916.16;5073277;28;20190;-75
2022/08/02 05:00:37;;;;;;;3.35;2.53;;;;;;;29.90;58.42;99914.00;5072700;28;20202;-74
2022/08/02 05:03:04;;;;;;;3.72;2.67;;;;;;;30.65;56.52;99928.47;5073518;28;20198;-70
2022/08/02 05:05:32;;;;;;;3.75;2.38;;;;;;;31.50;52.83;99921.47;5073332;28;20226;-73
2022/08/02 05:07:59;;;;;;;15.10;9.43;;;;;;;31.83;51.76;99925.19;5072600;28;20203;-72
2022/08/02 05:10:26;;;;;;;3.85;3.45;;;;;;;31.17;52.23;99896.19;5054567;28;20229;-77
2022/08/02 05:12:53;;;;;;;3.35;3.03;;;;;;;30.69;54.33;99924.59;5053742;28;20202;-76
2022/08/02 05:15:20;;;;;;;6.53;3.30;;;;;;;30.24;55.36;99927.78;5091891;28;20193;-78
2022/08/02 05:17:48;;;;;;;5.47;3.15;;;;;;;30.55;56.24;99927.41;5084201;28;20225;-78
2022/08/02 05:20:16;;;;;;;5.05;2.95;;;;;;;30.75;54.35;99918.81;5076788;28;20693;-77
2022/08/02 05:22:45;;;;;;;6.22;2.65;;;;;;;30.86;54.50;99937.66;5088590;28;20205;-75
2022/08/02 05:25:12;;;;;;;6.35;3.20;;;;;;;30.26;56.35;99932.06;5092069;28;20206;-75
2022/08/02 05:27:38;;;;;;;11.23;3.03;;;;;;;30.33;57.08;99938.69;5090647;28;20573;-76
2022/08/02 05:30:07;;;;;;;5.07;2.60;;;;;;;30.46;56.11;99938.75;5089349;28;20213;-76
2022/08/02 05:32:34;;;;;;;3.88;2.92;;;;;;;30.14;57.82;99943.59;5092468;28;20235;-76
2022/08/02 05:35:01;;;;;;;12.90;2.95;;;;;;;30.43;56.44;99909.50;5057146;28;20623;-75
2022/08/02 05:37:28;;;;;;;7.47;2.67;;;;;;;30.48;57.10;99958.22;5093199;28;20251;-76
2022/08/02 05:39:56;;;;;;;2.58;2.30;;;;;;;30.20;58.11;99956.56;5083464;28;20218;-76
2022/08/02 05:42:24;;;;;;;2.67;2.47;;;;;;;29.84;60.07;99957.22;5092119;28;20193;-75
2022/08/02 05:44:50;;;;;;;5.30;2.70;;;;;;;29.57;62.02;99942.09;5090456;28;20209;-75
2022/08/02 05:47:17;;;;;;;5.95;2.92;;;;;;;29.51;64.78;99964.72;5084286;28;20694;-76
2022/08/02 05:49:44;;;;;;;5.88;3.13;;;;;;;29.44;64.15;99932.19;5092760;28;20206;-75
2022/08/02 05:52:15;;;;;;;3.97;3.30;;;;;;;29.46;63.83;99966.84;5092621;28;20232;-76
2022/08/02 05:54:49;;;;;;;3.10;2.80;;;;;;;29.30;64.67;99956.28;5082996;28;20198;-76
2022/08/02 05:57:30;;;;;;;4.55;3.15;;;;;;;28.87;67.23;99965.25;5071957;28;20592;-78
2022/08/02 06:00:06;;;;;;;5.43;3.10;;;;;;;28.60;68.78;99965.13;5071760;28;20256;-77
2022/08/02 06:02:43;;;;;;;5.53;3.08;;;;;;;27.79;75.88;99962.84;5071424;28;20205;-77
2022/08/02 06:05:12;;;;;;;13.63;4.05;;;;;;;28.02;75.48;99967.69;5071735;28;20225;-76
2022/08/02 06:07:41;;;;;;;10.68;3.55;;;;;;;27.76;76.40;99926.56;5071428;28;20203;-77
2022/08/02 06:10:12;;;;;;;10.27;3.10;;;;;;;28.03;74.42;99959.63;5071418;28;20210;-77
2022/08/02 06:12:46;;;;;;;5.72;3.03;;;;;;;28.08;74.18;99968.22;5068808;28;20769;-76
2022/08/02 06:15:15;;;;;;;3.47;3.17;;;;;;;28.14;74.59;99979.47;5071542;28;20194;-77
2022/08/02 06:17:42;;;;;;;4.50;3.13;;;;;;;27.76;74.57;99971.00;5075358;28;20202;-77
2022/08/02 06:20:12;;;;;;;6.15;3.20;;;;;;;27.45;77.62;99977.22;5072319;28;20665;-76
2022/08/02 06:22:42;;;;;;;3.45;3.15;;;;;;;26.90;81.09;99971.34;5069727;28;20731;-77
2022/08/02 06:25:10;;;;;;;4.70;2.78;;;;;;;26.53;84.44;99967.09;5071033;28;20225;-78
2022/08/02 06:27:37;;;;;;;5.68;3.13;;;;;;;26.35;87.11;99968.03;5066037;28;20191;-76
2022/08/02 06:30:07;;;;;;;6.35;3.22;;;;;;;26.15;89.01;99974.31;5070616;28;20203;-76
2022/08/02 06:32:34;;;;;;;4.25;3.17;;;;;;;25.91;94.99;99949.00;5052946;28;20227;-76
2022/08/02 06:35:01;;;;;;;3.45;3.25;;;;;;;26.28;91.38;99974.63;5071199;28;20203;-76
2022/08/02 06:37:37;;;;;;;3.88;3.67;;;;;;;26.40;89.06;99974.81;5071426;28;20203;-77
2022/08/02 06:40:10;;;;;;;3.60;2.70;;;;;;;26.47;90.02;99975.41;5068563;28;20202;-76
2022/08/02 06:42:49;;;;;;;3.58;3.28;;;;;;;26.40;88.77;99973.97;5035637;28;20214;-76
2022/08/02 06:45:18;;;;;;;3.33;3.13;;;;;;;26.63;86.43;99970.97;5070003;28;20715;-74
2022/08/02 06:47:45;;;;;;;3.75;2.92;;;;;;;26.56;88.06;99980.22;5068903;28;20202;-74
2022/08/02 06:50:12;;;;;;;2.85;2.65;;;;;;;26.56;85.50;99974.91;5071226;28;20199;-74
2022/08/02 06:52:39;;;;;;;4.13;3.28;;;;;;;26.60;86.86;99971.16;5071226;28;20215;-74
2022/08/02 06:55:07;;;;;;;3.65;3.05;;;;;;;26.61;85.66;99980.84;5071197;28;20215;-74
2022/08/02 06:57:34;;;;;;;4.28;2.65;;;;;;;26.68;86.69;99984.91;5071135;28;20201;-74
2022/08/02 07:00:03;;;;;;;2.88;2.67;;;;;;;26.63;86.01;99970.97;5071467;28;20662;-77
2022/08/02 07:02:32;;;;;;;2.70;2.33;;;;;;;26.75;86.06;99980.13;5070892;28;20736;-78
2022/08/02 07:04:59;;;;;;;3.30;3.05;;;;;;;26.97;85.95;99983.38;5070868;28;20231;-77
2022/08/02 07:07:26;;;;;;;3.13;2.47;;;;;;;27.20;81.59;99979.47;5071169;28;20218;-77
2022/08/02 07:09:53;;;;;;;5.20;2.58;;;;;;;26.94;79.73;99968.44;5071116;28;20195;-76
2022/08/02 07:12:20;;;;;;;2.30;2.10;;;;;;;27.17;78.19;99977.84;5070798;28;20222;-76
2022/08/02 07:14:47;;;;;;;3.38;2.80;;;;;;;27.21;78.06;99983.88;5070868;28;20199;-77
2022/08/02 07:17:14;;;;;;;2.25;2.15;;;;;;;27.16;77.76;99970.78;5070927;28;20578;-76
2022/08/02 07:19:43;;;;;;;3.58;2.15;;;;;;;27.36;75.97;99985.69;5070794;28;20572;-76
2022/08/02 07:22:11;;;;;;;2.25;2.05;;;;;;;27.33;71.83;99964.53;5070874;28;20197;-75
2022/08/02 07:24:38;;;;;;;2.00;1.80;;;;;;;27.51;71.84;99988.38;5071105;28;20194;-76
2022/08/02 07:27:05;;;;;;;2.45;1.92;;;;;;;27.48;72.42;99974.38;5070859;28;20568;-75
2022/08/02 07:29:32;;;;;;;3.17;1.92;;;;;;;27.54;71.31;99963.34;5070759;28;20209;-77
2022/08/02 07:31:59;;;;;;;1.98;1.88;;;;;;;27.45;71.34;99961.22;5070764;28;20230;-76
2022/08/02 07:34:26;;;;;;;3.35;2.25;;;;;;;27.40;70.54;99973.91;5035307;28;20202;-77
2022/08/02 07:36:54;;;;;;;2.10;2.00;;;;;;;27.50;69.74;99986.66;5070819;28;20202;-76
2022/08/02 07:39:21;;;;;;;2.00;1.88;;;;;;;27.67;68.40;99988.38;5070714;28;20203;-76
2022/08/02 07:41:50;;;;;;;4.10;2.03;;;;;;;27.62;68.12;99990.44;5070638;28;20600;-76
2022/08/02 07:44:17;;;;;;;2.15;2.05;;;;;;;27.78;68.76;99969.13;5035812;28;20686;-76
2022/08/02 07:46:44;;;;;;;2.22;1.90;;;;;;;28.00;66.76;99986.44;5070723;28;20198;-76
2022/08/02 07:49:12;;;;;;;5.63;2.10;;;;;;;28.09;66.71;99979.75;5069957;28;20191;-76
2022/08/02 07:51:39;;;;;;;2.08;1.98;;;;;;;28.30;64.73;99993.63;5070120;28;20246;-76
2022/08/02 07:54:07;;;;;;;3.08;2.15;;;;;;;27.95;66.20;99977.00;5070051;28;20203;-75
2022/08/02 07:56:34;;;;;;;2.08;1.92;;;;;;;28.11;66.68;99993.00;5069739;28;20191;-76
2022/08/02 07:59:01;;;;;;;2.35;2.25;;;;;;;27.91;66.27;99970.13;5070385;28;20202;-75
2022/08/02 08:01:28;;;;;;;2.25;2.15;;;;;;;28.21;65.81;99994.16;5070583;28;20209;-76
2022/08/02 08:03:55;;;;;;;2.80;2.10;;;;;;;28.04;63.50;99993.31;5070163;28;20245;-76
2022/08/02 08:06:23;;;;;;;1.83;1.73;;;;;;;27.82;66.20;99998.19;5070316;28;20201;-75
2022/08/02 08:08:50;;;;;;;5.47;2.00;;;;;;;28.07;63.17;99995.81;5070212;28;20195;-76
2022/08/02 08:11:18;;;;;;;2.15;1.88;;;;;;;28.05;63.64;99992.38;5051124;28;20206;-76
2022/08/02 08:13:45;;;;;;;2.13;1.75;;;;;;;27.73;64.04;99989.81;5070276;28;20214;-76
2022/08/02 08:16:11;;;;;;;2.30;2.20;;;;;;;28.16;62.74;99996.25;5070087;28;20701;-75
2022/08/02 08:18:38;;;;;;;2.10;1.90;;;;;;;28.49;62.76;100002.25;5070320;28;20194;-75
2022/08/02 08:21:05;;;;;;;2.97;2.15;;;;;;;28.72;60.51;99991.06;5070053;28;20582;-76
2022/08/02 08:23:32;;;;;;;3.05;1.90;;;;;;;28.74;58.39;99997.19;5070282;28;20202;-76
2022/08/02 08:25:59;;;;;;;3.10;1.98;;;;;;;29.02;59.14;100004.34;5070280;28;20580;-76
2022/08/02 08:28:27;;;;;;;3.60;2.03;;;;;;;28.85;55.72;99996.53;5069962;28;20247;-76
2022/08/02 08:30:54;;;;;;;3.85;1.88;;;;;;;28.69;56.38;99975.25;5070278;28;20202;-76
2022/08/02 08:33:21;;;;;;;2.03;1.92;;;;;;;28.89;58.05;99984.72;5069691;28;20231;-76
2022/08/02 08:35:48;;;;;;;2.15;1.90;;;;;;;28.99;57.25;99984.03;5070009;28;20198;-75
2022/08/02 08:38:15;;;;;;;2.03;1.92;;;;;;;28.99;57.68;99984.03;5070027;28;20198;-76
2022/08/02 08:40:43;;;;;;;2.28;2.13;;;;;;;29.08;55.82;99993.28;5069974;28;20751;-76
2022/08/02 08:43:12;;;;;;;1.90;1.80;;;;;;;28.68;56.79;99981.53;5069819;28;20252;-76
2022/08/02 08:45:41;;;;;;;4.10;2.05;;;;;;;28.54;57.82;99970.78;5070047;28;20198;-76
2022/08/02 08:48:14;;;;;;;2.65;1.92;;;;;;;28.78;58.18;99985.38;5069919;28;20210;-76
2022/08/02 08:50:48;;;;;;;3.03;2.40;;;;;;;28.89;57.62;99972.22;5070201;28;20199;-76
2022/08/02 08:53:15;;;;;;;2.20;2.00;;;;;;;28.91;56.60;99985.47;5069768;28;20252;-76
2022/08/02 08:55:43;;;;;;;1.80;1.70;;;;;;;28.80;55.78;99956.75;5069994;28;20207;-76
2022/08/02 08:58:12;;;;;;;2.00;1.80;;;;;;;29.05;55.87;99983.66;5069727;28;20260;-77
2022/08/02 09:00:41;;;;;;;3.75;1.90;;;;;;;28.65;54.67;99965.66;5069875;28;20315;-75
2022/08/02 09:03:09;;;;;;;1.80;1.70;;;;;;;28.87;54.96;99979.44;5069671;28;20202;-75
2022/08/02 09:05:38;;;;;;;1.85;1.75;;;;;;;28.92;54.95;99956.00;5069593;28;20299;-76
2022/08/02 09:08:06;;;;;;;2.00;1.88;;;;;;;28.82;54.85;99949.53;5070654;28;20198;-76
2022/08/02 09:10:43;;;;;;;1.70;1.60;;;;;;;28.94;52.15;99980.78;5073388;28;20260;-76
2022/08/02 09:13:14;;;;;;;4.45;1.40;;;;;;;28.92;51.61;99956.00;5037482;28;20305;-76
2022/08/02 09:15:45;;;;;;;1.40;1.40;;;;;;;29.13;51.61;99976.97;5073445;28;20585;-77
2022/08/02 09:18:13;;;;;;;1.77;1.63;;;;;;;29.17;52.06;99976.69;5073478;28;20209;-77
2022/08/02 09:20:56;;;;;;;1.80;1.70;;;;;;;29.02;52.78;99972.31;5073298;28;20206;-76
2022/08/02 09:23:24;;;;;;;1.90;1.80;;;;;;;28.93;52.66;99968.38;5073066;28;20209;-76
2022/08/02 09:25:59;;;;;;;1.75;1.65;;;;;;;29.04;52.20;99949.88;5071740;28;20733;-76
2022/08/02 09:28:28;;;;;;;1.85;1.77;;;;;;;29.04;52.75;99970.38;5071269;28;20194;-76
2022/08/02 09:30:59;;;;;;;2.35;2.10;;;;;;;29.50;52.96;99968.38;5071437;28;20217;-76
2022/08/02 09:33:26;;;;;;;2.45;1.70;;;;;;;29.25;51.51;99936.16;5071111;28;20217;-76
2022/08/02 09:36:00;;;;;;;2.47;1.70;;;;;;;29.40;51.60;99969.91;5071259;28;20213;-77
2022/08/02 09:38:27;;;;;;;1.80;1.70;;;;;;;29.35;51.44;99937.28;5072554;28;20272;-76
2022/08/02 09:40:54;;;;;;;2.70;1.80;;;;;;;29.89;50.22;99959.59;5072730;28;20619;-76
2022/08/02 09:43:21;;;;;;;2.28;2.08;;;;;;;29.82;49.34;99918.97;5072915;28;20727;-76
2022/08/02 09:45:48;;;;;;;1.63;1.60;;;;;;;30.13;47.49;99965.97;5072581;28;20205;-77
2022/08/02 09:48:16;;;;;;;1.90;1.80;;;;;;;30.34;46.94;99951.13;5072664;28;20203;-77
2022/08/02 09:50:45;;;;;;;1.27;1.27;;;;;;;30.51;45.26;99963.38;5072642;28;20646;-76
2022/08/02 09:53:13;;;;;;;2.28;1.77;;;;;;;30.55;45.85;99964.88;5072486;28;20260;-76
2022/08/02 09:55:41;;;;;;;1.50;1.50;;;;;;;30.00;46.70;99963.22;5072612;28;20662;-76
2022/08/02 09:58:18;;;;;;;1.73;1.55;;;;;;;30.26;45.97;99965.97;5037235;28;20202;-76
2022/08/02 10:00:54;;;;;;;2.17;1.70;;;;;;;30.40;46.16;99960.53;5072448;28;20277;-76
2022/08/02 10:03:23;;;;;;;5.78;1.50;;;;;;;30.41;44.62;99962.25;5072535;28;20895;-76
2022/08/02 10:05:52;;;;;;;5.90;1.60;;;;;;;30.58;45.02;99964.66;5072010;28;20637;-76
2022/08/02 10:08:19;;;;;;;1.63;1.58;;;;;;;30.41;44.43;99954.22;5053392;28;20279;-76
2022/08/02 10:10:48;;;;;;;3.50;1.52;;;;;;;30.67;44.19;99950.66;5036949;28;20212;-76
2022/08/02 10:13:27;;;;;;;1.30;1.30;;;;;;;30.51;44.01;99960.69;5072192;28;20226;-75
2022/08/02 10:15:55;;;;;;;1.45;1.33;;;;;;;30.25;45.11;99951.72;5072149;28;20198;-75
2022/08/02 10:18:24;;;;;;;1.70;1.60;;;;;;;30.25;45.90;99956.25;5072086;28;20221;-76
2022/08/02 10:20:54;;;;;;;1.60;1.50;;;;;;;30.55;44.82;99951.50;5072185;28;20256;-76
2022/08/02 10:23:22;;;;;;;1.63;1.50;;;;;;;30.69;43.67;99946.03;5072180;28;20723;-77
2022/08/02 10:25:52;;;;;;;1.88;1.42;;;;;;;30.33;44.92;99956.56;5071879;28;20202;-76
2022/08/02 10:28:25;;;;;;;1.80;1.70;;;;;;;30.25;44.66;99926.81;5071940;28;20289;-75
2022/08/02 10:30:56;;;;;;;1.67;1.67;;;;;;;30.56;44.64;99945.19;5071798;28;20727;-76
2022/08/02 10:33:26;;;;;;;1.70;1.60;;;;;;;30.72;44.33;99950.31;5071655;28;20241;-76
2022/08/02 10:35:56;;;;;;;1.50;1.50;;;;;;;30.65;44.20;99903.50;5071927;28;20206;-76
2022/08/02 10:38:24;;;;;;;1.70;1.60;;;;;;;30.72;44.09;99935.09;5071959;28;20194;-76
2022/08/02 10:40:52;;;;;;;1.75;1.65;;;;;;;30.84;43.59;99936.94;5070796;28;20206;-76
2022/08/02 10:43:42;;;;;;;2.08;1.60;;;;;;;30.76;44.90;99935.75;5070779;28;20198;-76
2022/08/02 10:46:23;;;;;;;1.50;1.50;;;;;;;30.53;44.15;99942.72;5070566;28;20247;-77
2022/08/02 10:49:10;;;;;;;1.60;1.50;;;;;;;30.19;44.25;99919.19;5070597;28;20217;-76
2022/08/02 10:51:57;;;;;;;1.50;1.40;;;;;;;30.64;44.71;99926.78;5070591;28;20198;-76
2022/08/02 10:54:25;;;;;;;2.00;1.58;;;;;;;31.05;44.08;99926.53;5070124;28;20598;-75
2022/08/02 10:56:54;;;;;;;1.70;1.60;;;;;;;31.24;43.17;99926.06;5070365;28;20674;-76
2022/08/02 10:59:25;;;;;;;1.70;1.60;;;;;;;31.18;43.57;99931.88;5070213;28;20205;-76
2022/08/02 11:01:59;;;;;;;2.38;1.50;;;;;;;31.25;43.08;99909.03;5070607;28;20263;-76
2022/08/02 11:04:29;;;;;;;1.85;1.70;;;;;;;31.62;42.50;99901.81;5070936;28;20873;-77
2022/08/02 11:07:12;;;;;;;1.80;1.70;;;;;;;32.31;41.52;99927.84;5071090;28;20578;-77
2022/08/02 11:09:40;;;;;;;2.45;1.58;;;;;;;32.47;40.33;99928.34;5008970;28;20602;-75
2022/08/02 11:12:09;;;;;;;3.53;2.10;;;;;;;32.12;41.63;99919.47;5008864;28;20246;-76
2022/08/02 11:14:38;;;;;;;4.55;1.58;;;;;;;32.07;41.53;99933.25;5009113;28;20207;-77
2022/08/02 11:17:16;;;;;;;2.72;1.80;;;;;;;31.99;41.07;99929.41;5008902;28;20215;-77
2022/08/02 11:20:19;;;;;;;3.25;1.60;;;;;;;31.71;41.94;99915.41;5006844;28;20657;-77
2022/08/02 11:22:47;;;;;;;2.33;1.50;;;;;;;31.68;42.23;99926.34;5008831;28;20350;-76
2022/08/02 11:25:33;;;;;;;3.40;1.80;;;;;;;31.69;41.87;99927.19;4956376;28;20208;-77
2022/08/02 11:28:07;;;;;;;1.40;1.30;;;;;;;31.95;41.95;99923.44;4989116;28;20308;-77
2022/08/02 11:30:35;;;;;;;1.42;1.42;;;;;;;32.22;41.22;99909.75;4991663;28;20651;-77
2022/08/02 11:33:02;;;;;;;2.72;1.50;;;;;;;32.33;41.31;99924.06;5017135;28;20228;-77
2022/08/02 11:35:34;;;;;;;6.13;1.63;;;;;;;32.01;41.18;99914.03;5011247;28;20200;-77
2022/08/02 11:38:19;;;;;;;3.17;1.70;;;;;;;31.93;41.59;99915.47;5021996;28;20215;-76
2022/08/02 11:40:47;;;;;;;1.58;1.50;;;;;;;31.86;41.92;99914.22;5028175;28;20237;-76
2022/08/02 11:43:18;;;;;;;2.15;1.60;;;;;;;31.76;41.49;99907.00;5028305;28;20195;-76
2022/08/02 11:45:46;;;;;;;1.80;1.70;;;;;;;31.85;40.51;99911.69;5028354;28;20202;-76
2022/08/02 11:48:13;;;;;;;1.50;1.40;;;;;;;31.73;41.75;99908.09;5050523;28;20202;-76